createdAt,value
2022-08-22T00:01:11.946Z,0.80
2022-08-22T00:02:54.874Z,0.93
2022-08-22T00:03:07.362Z,0.30
2022-08-22T00:03:48.968Z,0.85
2022-08-22T00:06:24.316Z,0.80
2022-08-22T00:09:04.536Z,0.70
2022-08-22T00:11:54.435Z,0.90
2022-08-22T00:14:36.244Z,0.70
2022-08-22T00:17:29.127Z,0.57
2022-08-22T00:20:03.792Z,0.50
2022-08-22T00:22:38.969Z,0.77
2022-08-22T00:25:34.699Z,0.60
2022-08-22T00:28:10.099Z,0.52
2022-08-22T00:30:48.709Z,0.65
2022-08-22T00:33:26.957Z,0.55
2022-08-22T00:36:10.690Z,0.68
2022-08-22T00:38:43.601Z,0.40
2022-08-22T00:41:23.940Z,0.80
2022-08-22T00:44:09.705Z,0.60
2022-08-22T00:47:03.956Z,0.70
2022-08-22T00:49:50.799Z,0.77
2022-08-22T00:52:54.069Z,0.80
2022-08-22T00:55:52.395Z,1.00
2022-08-22T00:58:41.679Z,0.50
2022-08-22T01:01:14.600Z,1.13
2022-08-22T01:04:09.960Z,1.02
2022-08-22T01:06:49.366Z,1.08
2022-08-22T01:09:36.195Z,0.50
2022-08-22T01:12:28.989Z,0.82
2022-08-22T01:15:01.424Z,0.57
2022-08-22T01:17:59.433Z,1.35
2022-08-22T01:21:12.632Z,0.73
2022-08-22T01:24:16.809Z,0.70
2022-08-22T01:27:21.341Z,1.10
2022-08-22T01:30:19.160Z,1.10
2022-08-22T01:33:34.987Z,1.27
2022-08-22T01:36:23.876Z,0.65
2022-08-22T01:39:10.724Z,0.70
2022-08-22T01:42:23.592Z,0.90
2022-08-22T01:45:11.975Z,0.60
2022-08-22T01:47:50.866Z,1.00
2022-08-22T01:50:26.704Z,0.90
2022-08-22T01:53:05.870Z,0.98
2022-08-22T01:55:42.624Z,1.48
2022-08-22T01:58:17.798Z,0.93
2022-08-22T02:01:04.486Z,1.00
2022-08-22T02:03:36.521Z,0.93
2022-08-22T02:06:09.017Z,1.15
2022-08-22T02:08:55.177Z,0.70
2022-08-22T02:11:41.556Z,0.63
2022-08-22T02:14:21.473Z,0.60
2022-08-22T02:16:59.968Z,0.70
2022-08-22T02:19:48.478Z,0.50
2022-08-22T02:22:44.324Z,0.60
2022-08-22T02:25:25.612Z,0.60
2022-08-22T02:28:08.624Z,0.60
2022-08-22T02:30:51.107Z,0.60
2022-08-22T02:33:30.218Z,0.50
2022-08-22T02:36:07.965Z,0.50
2022-08-22T02:38:39.946Z,0.40
2022-08-22T02:41:16.906Z,0.50
2022-08-22T02:43:57.902Z,0.63
2022-08-22T02:46:33.166Z,0.40
2022-08-22T02:49:10.297Z,0.50
2022-08-22T02:51:47.955Z,0.60
2022-08-22T02:54:23.340Z,0.65
2022-08-22T02:56:58.604Z,0.65
2022-08-22T02:59:34.072Z,0.60
2022-08-22T03:02:39.272Z,0.57
2022-08-22T03:05:25.187Z,0.60
2022-08-22T03:08:15.195Z,0.43
2022-08-22T03:10:57.063Z,0.55
2022-08-22T03:13:51.655Z,0.63
2022-08-22T03:16:50.083Z,0.73
2022-08-22T03:19:31.367Z,0.70
2022-08-22T03:22:05.817Z,0.73
2022-08-22T03:24:40.166Z,0.70
2022-08-22T03:27:27.770Z,0.60
2022-08-22T03:30:08.986Z,0.57
2022-08-22T03:32:55.623Z,0.65
2022-08-22T03:35:38.138Z,0.60
2022-08-22T03:38:21.216Z,0.85
2022-08-22T03:41:24.038Z,0.73
2022-08-22T03:44:22.400Z,0.65
2022-08-22T03:47:17.616Z,0.82
2022-08-22T03:50:23.745Z,0.63
2022-08-22T03:53:29.509Z,0.85
2022-08-22T03:56:39.778Z,0.90
2022-08-22T03:59:49.767Z,0.50
2022-08-22T04:02:51.726Z,0.80
2022-08-22T04:05:59.141Z,0.75
2022-08-22T04:09:21.240Z,0.82
2022-08-22T04:12:20.011Z,1.00
2022-08-22T04:15:35.863Z,0.80
2022-08-22T04:18:33.438Z,0.90
2022-08-22T04:21:30.977Z,0.80
2022-08-22T04:24:17.841Z,0.40
2022-08-22T04:26:52.164Z,1.02
2022-08-22T04:29:25.534Z,1.00
2022-08-22T04:32:14.677Z,0.73
2022-08-22T04:34:49.823Z,0.50
2022-08-22T04:37:24.847Z,0.63
2022-08-22T04:39:57.337Z,0.90
2022-08-22T04:42:33.522Z,0.82
2022-08-22T04:45:08.882Z,0.63
2022-08-22T04:47:40.256Z,0.60
2022-08-22T04:50:21.168Z,0.85
2022-08-22T04:53:23.890Z,0.60
2022-08-22T04:56:10.266Z,0.60
2022-08-22T04:58:47.258Z,0.70
2022-08-22T05:01:20.693Z,0.88
2022-08-22T05:04:06.733Z,0.80
2022-08-22T05:06:51.790Z,0.85
2022-08-22T05:09:26.171Z,0.60
2022-08-22T05:12:09.160Z,0.93
2022-08-22T05:14:46.467Z,1.40
2022-08-22T05:17:24.934Z,0.88
2022-08-22T05:19:57.007Z,1.10
2022-08-22T05:22:33.507Z,0.82
2022-08-22T05:25:08.620Z,0.70
2022-08-22T05:27:41.374Z,0.80
2022-08-22T05:30:15.571Z,0.90
2022-08-22T05:35:35.497Z,0.70
2022-08-22T05:38:07.801Z,0.70
2022-08-22T05:40:38.554Z,0.68
2022-08-22T05:43:11.302Z,1.20
2022-08-22T05:45:41.426Z,0.73
2022-08-22T05:48:16.316Z,0.85
2022-08-22T05:50:50.989Z,0.80
2022-08-22T05:53:33.296Z,0.80
2022-08-22T05:56:06.079Z,1.20
2022-08-22T05:58:50.265Z,0.80
2022-08-22T06:01:35.517Z,1.00
2022-08-22T06:04:17.739Z,1.00
2022-08-22T06:07:04.159Z,1.30
2022-08-22T06:09:43.976Z,1.20
2022-08-22T06:12:18.128Z,1.42
2022-08-22T06:15:11.686Z,1.30
2022-08-22T06:17:45.507Z,1.70
2022-08-22T06:20:20.137Z,1.13
2022-08-22T06:23:07.466Z,1.05
2022-08-22T06:25:44.923Z,1.55
2022-08-22T06:28:18.706Z,1.05
2022-08-22T06:30:48.654Z,0.93
2022-08-22T06:33:26.106Z,1.38
2022-08-22T06:36:20.510Z,0.73
2022-08-22T06:41:28.028Z,0.80
2022-08-22T06:43:58.099Z,0.68
2022-08-22T06:46:30.837Z,1.15
2022-08-22T06:49:01.233Z,0.90
2022-08-22T06:51:33.022Z,1.75
2022-08-22T06:54:04.240Z,1.30
2022-08-22T06:56:41.718Z,0.80
2022-08-22T06:59:22.585Z,1.38
2022-08-22T07:01:54.163Z,0.60
2022-08-22T07:04:26.621Z,1.38
2022-08-22T07:06:58.271Z,1.20
2022-08-22T07:09:37.091Z,1.02
2022-08-22T07:12:18.397Z,0.70
2022-08-22T07:14:51.065Z,1.25
2022-08-22T07:17:22.129Z,1.38
2022-08-22T07:19:58.265Z,0.80
2022-08-22T07:22:29.581Z,0.70
2022-08-22T07:25:04.041Z,0.90
2022-08-22T07:27:53.832Z,0.93
2022-08-22T07:30:27.851Z,1.40
2022-08-22T07:33:25.968Z,0.70
2022-08-22T07:36:04.151Z,0.50
2022-08-22T07:38:43.955Z,0.75
2022-08-22T07:41:16.653Z,0.73
2022-08-22T07:43:56.208Z,1.02
2022-08-22T07:46:31.703Z,1.40
2022-08-22T07:49:10.226Z,0.80
2022-08-22T07:51:46.167Z,0.98
2022-08-22T07:54:17.667Z,0.70
2022-08-22T07:56:57.605Z,0.80
2022-08-22T07:59:29.057Z,0.60
2022-08-22T08:02:08.026Z,0.60
2022-08-22T08:04:41.199Z,0.90
2022-08-22T08:07:11.794Z,1.35
2022-08-22T08:09:44.523Z,0.88
2022-08-22T08:12:13.890Z,0.70
2022-08-22T08:14:46.171Z,0.60
2022-08-22T08:17:26.180Z,0.73
2022-08-22T08:19:58.973Z,0.60
2022-08-22T08:22:28.820Z,0.40
2022-08-22T08:24:59.462Z,0.43
2022-08-22T08:27:51.330Z,0.45
2022-08-22T08:30:24.659Z,0.50
2022-08-22T08:33:25.050Z,0.40
2022-08-22T08:36:02.062Z,0.40
2022-08-22T08:38:44.329Z,0.60
2022-08-22T08:41:50.808Z,0.43
2022-08-22T08:44:43.367Z,0.80
2022-08-22T08:47:39.862Z,0.35
2022-08-22T08:50:55.522Z,0.70
2022-08-22T08:54:06.436Z,0.80
2022-08-22T08:56:47.181Z,0.40
2022-08-22T08:59:35.346Z,0.40
2022-08-22T09:05:55.635Z,0.60
2022-08-22T09:08:55.893Z,0.25
2022-08-22T09:12:06.873Z,0.40
2022-08-22T09:15:15.709Z,0.50
2022-08-22T09:18:22.971Z,0.40
2022-08-22T09:21:41.318Z,0.40
2022-08-22T09:24:42.127Z,0.20
2022-08-22T09:27:28.772Z,0.60
2022-08-22T09:30:04.775Z,0.30
2022-08-22T09:32:49.796Z,0.50
2022-08-22T09:35:29.229Z,0.32
2022-08-22T09:38:31.679Z,0.50
2022-08-22T09:41:18.339Z,0.25
2022-08-22T09:43:55.569Z,0.55
2022-08-22T09:46:32.118Z,0.70
2022-08-22T09:49:16.571Z,0.38
2022-08-22T09:52:15.695Z,0.30
2022-08-22T09:55:08.555Z,0.20
2022-08-22T09:57:41.806Z,0.38
2022-08-22T10:00:25.679Z,0.60
2022-08-22T10:03:16.781Z,0.50
2022-08-22T10:05:55.727Z,0.32
2022-08-22T10:08:37.846Z,0.50
2022-08-22T10:11:42.363Z,0.52
2022-08-22T10:14:16.604Z,0.50
2022-08-22T10:17:21.867Z,0.20
2022-08-22T10:19:59.708Z,0.22
2022-08-22T10:22:47.371Z,0.43
2022-08-22T10:25:31.439Z,0.60
2022-08-22T10:28:28.766Z,0.30
2022-08-22T10:31:26.762Z,0.50
2022-08-22T10:34:11.025Z,0.45
2022-08-22T10:37:02.309Z,0.50
2022-08-22T10:39:50.940Z,0.43
2022-08-22T10:42:28.637Z,0.60
2022-08-22T10:48:34.553Z,0.40
2022-08-22T10:51:29.245Z,0.45
2022-08-22T10:54:45.585Z,0.30
2022-08-22T10:57:21.303Z,0.40
2022-08-22T11:00:09.341Z,0.52
2022-08-22T11:03:03.366Z,0.40
2022-08-22T11:05:37.331Z,0.20
2022-08-22T11:08:46.361Z,0.60
2022-08-22T11:17:41.649Z,0.40
2022-08-22T11:20:21.325Z,0.43
2022-08-22T11:23:13.066Z,0.32
2022-08-22T11:25:52.454Z,0.20
2022-08-22T11:28:36.137Z,0.22
2022-08-22T11:31:21.454Z,0.30
2022-08-22T11:34:10.635Z,0.17
2022-08-22T11:36:46.661Z,0.40
2022-08-22T11:39:25.942Z,0.50
2022-08-22T11:42:09.228Z,0.35
2022-08-22T11:44:51.206Z,0.40
2022-08-22T11:47:27.338Z,0.30
2022-08-22T11:50:03.777Z,0.65
2022-08-22T11:53:14.399Z,0.47
2022-08-22T11:55:57.629Z,0.40
2022-08-22T11:58:33.073Z,0.50
2022-08-22T12:01:05.673Z,0.20
2022-08-22T12:04:09.906Z,0.10
2022-08-22T12:07:21.085Z,0.60
2022-08-22T12:09:55.217Z,0.30
2022-08-22T12:12:48.254Z,0.20
2022-08-22T12:15:22.613Z,0.40
2022-08-22T12:18:43.390Z,0.40
2022-08-22T12:21:27.534Z,0.22
2022-08-22T12:24:26.823Z,0.28
2022-08-22T12:27:38.034Z,0.20
2022-08-22T12:30:16.248Z,0.20
2022-08-22T12:33:23.535Z,0.40
2022-08-22T12:36:20.246Z,0.55
2022-08-22T12:39:08.540Z,0.52
2022-08-22T12:42:09.424Z,0.30
2022-08-22T12:45:02.342Z,0.20
2022-08-22T12:47:50.641Z,0.13
2022-08-22T12:50:31.489Z,0.30
2022-08-22T12:53:36.531Z,0.40
2022-08-22T12:56:16.852Z,0.30
2022-08-22T12:59:21.759Z,0.50
2022-08-22T13:01:55.304Z,0.30
2022-08-22T13:04:33.160Z,0.35
2022-08-22T13:07:22.792Z,0.20
2022-08-22T13:09:58.758Z,0.40
2022-08-22T13:12:34.372Z,0.52
2022-08-22T13:15:36.060Z,0.77
2022-08-22T13:18:29.437Z,0.40
2022-08-22T13:21:06.564Z,0.70
2022-08-22T13:23:39.773Z,0.40
2022-08-22T13:26:32.872Z,0.40
2022-08-22T13:29:25.315Z,0.40
2022-08-22T13:32:00.322Z,0.30
2022-08-22T13:34:43.895Z,0.30
2022-08-22T13:37:38.261Z,0.30
2022-08-22T13:40:13.892Z,0.30
2022-08-22T13:42:48.242Z,0.45
2022-08-22T13:45:24.926Z,0.32
2022-08-22T13:48:03.701Z,0.40
2022-08-22T13:51:02.670Z,0.30
2022-08-22T13:53:49.954Z,0.20
2022-08-22T13:56:54.641Z,0.30
2022-08-22T13:59:50.360Z,0.30
2022-08-22T14:02:43.225Z,0.30
2022-08-22T14:05:19.286Z,0.22
2022-08-22T14:08:02.262Z,0.40
2022-08-22T14:10:36.597Z,0.32
2022-08-22T14:13:32.311Z,0.20
2022-08-22T14:16:02.703Z,0.43
2022-08-22T14:18:44.390Z,0.57
2022-08-22T14:21:33.344Z,0.50
2022-08-22T14:24:14.618Z,0.40
2022-08-22T14:26:54.713Z,0.30
2022-08-22T14:29:31.860Z,0.40
2022-08-22T14:32:05.423Z,0.20
2022-08-22T14:34:41.115Z,0.30
2022-08-22T14:37:22.915Z,0.20
2022-08-22T14:39:56.446Z,0.30
2022-08-22T14:42:28.667Z,0.20
2022-08-22T14:45:06.860Z,0.40
2022-08-22T14:48:29.562Z,0.35
2022-08-22T14:50:40.504Z,0.40
2022-08-22T14:53:14.057Z,0.15
2022-08-22T14:55:43.205Z,0.40
2022-08-22T14:58:17.661Z,0.20
2022-08-22T15:00:57.454Z,0.27
2022-08-22T15:03:29.892Z,0.30
2022-08-22T15:06:02.494Z,0.30
2022-08-22T15:08:35.380Z,0.30
2022-08-22T15:11:11.480Z,0.22
2022-08-22T15:13:43.706Z,0.20
2022-08-22T15:16:18.406Z,0.20
2022-08-22T15:18:52.094Z,0.20
2022-08-22T15:21:24.924Z,0.13
2022-08-22T15:23:59.350Z,0.40
2022-08-22T15:26:32.512Z,0.30
2022-08-22T15:29:11.304Z,0.22
2022-08-22T15:31:43.618Z,0.10
2022-08-22T15:34:24.114Z,0.20
2022-08-22T15:37:14.306Z,0.20
2022-08-22T15:40:08.214Z,0.10
2022-08-22T15:42:43.403Z,0.20
2022-08-22T15:45:21.839Z,0.30
2022-08-22T15:47:53.707Z,0.20
2022-08-22T15:50:34.483Z,0.20
2022-08-22T15:53:17.665Z,0.13
2022-08-22T15:56:28.238Z,0.10
2022-08-22T15:59:47.951Z,0.30
2022-08-22T16:02:35.198Z,0.20
2022-08-22T16:05:26.485Z,0.30
2022-08-22T16:08:04.213Z,0.17
2022-08-22T16:10:36.291Z,0.20
2022-08-22T16:13:38.446Z,0.20
2022-08-22T16:16:10.208Z,0.25
2022-08-22T16:19:18.970Z,0.32
2022-08-22T16:22:11.360Z,0.30
2022-08-22T16:25:10.448Z,0.10
2022-08-22T16:27:53.145Z,0.22
2022-08-22T16:30:38.243Z,0.10
2022-08-22T16:33:18.015Z,0.20
2022-08-22T16:36:26.018Z,0.20
2022-08-22T16:38:58.068Z,0.25
2022-08-22T16:41:33.018Z,0.28
2022-08-22T16:44:22.791Z,0.40
2022-08-22T16:46:54.086Z,0.28
2022-08-22T16:49:29.816Z,0.22
2022-08-22T16:52:36.299Z,0.30
2022-08-22T16:55:07.796Z,0.35
2022-08-22T16:57:59.314Z,0.17
2022-08-22T17:00:40.638Z,0.35
2022-08-22T17:03:19.341Z,0.20
2022-08-22T17:05:57.170Z,0.20
2022-08-22T17:08:51.315Z,0.52
2022-08-22T17:14:14.292Z,0.22
2022-08-22T17:16:56.978Z,0.30
2022-08-22T17:19:38.342Z,0.30
2022-08-22T17:22:17.747Z,0.30
2022-08-22T17:24:48.481Z,0.35
2022-08-22T17:27:27.647Z,0.15
2022-08-22T17:30:03.703Z,0.35
2022-08-22T17:32:39.407Z,0.40
2022-08-22T17:35:18.199Z,0.47
2022-08-22T17:38:02.578Z,0.30
2022-08-22T17:40:40.968Z,0.50
2022-08-22T17:43:49.119Z,0.40
2022-08-22T17:46:31.540Z,0.98
2022-08-22T17:49:13.673Z,0.80
2022-08-22T17:51:53.502Z,0.52
2022-08-22T17:54:29.709Z,0.68
2022-08-22T17:57:06.124Z,0.43
2022-08-22T17:59:46.839Z,0.55
2022-08-22T18:02:20.172Z,0.40
2022-08-22T18:04:52.810Z,0.30
2022-08-22T18:07:33.265Z,0.45
2022-08-22T18:10:09.599Z,0.30
2022-08-22T18:12:45.759Z,0.30
2022-08-22T18:15:25.962Z,0.30
2022-08-22T18:17:58.666Z,0.63
2022-08-22T18:20:32.855Z,0.30
2022-08-22T18:23:04.982Z,0.55
2022-08-22T18:26:03.724Z,0.60
2022-08-22T18:28:40.860Z,0.35
2022-08-22T18:31:37.729Z,0.20
2022-08-22T18:34:14.223Z,0.43
2022-08-22T18:36:51.556Z,0.30
2022-08-22T18:39:29.181Z,0.25
2022-08-22T18:42:05.367Z,0.40
2022-08-22T18:44:39.762Z,0.40
2022-08-22T18:47:20.269Z,0.50
2022-08-22T18:49:54.391Z,0.50
2022-08-22T18:52:38.854Z,0.30
2022-08-22T18:55:23.664Z,0.40
2022-08-22T18:58:12.829Z,0.38
2022-08-22T19:00:54.262Z,0.57
2022-08-22T19:03:41.973Z,0.45
2022-08-22T19:06:27.885Z,0.40
2022-08-22T19:09:32.639Z,0.28
2022-08-22T19:12:10.739Z,0.28
2022-08-22T19:15:07.466Z,0.30
2022-08-22T19:17:59.587Z,0.55
2022-08-22T19:20:49.717Z,0.55
2022-08-22T19:23:45.390Z,0.60
2022-08-22T19:26:35.907Z,2.50
2022-08-22T19:29:10.680Z,3.13
2022-08-22T19:31:45.986Z,2.05
2022-08-22T19:34:18.510Z,1.73
2022-08-22T19:37:34.079Z,1.20
2022-08-22T19:40:05.225Z,1.20
2022-08-22T19:42:36.777Z,1.20
2022-08-22T19:45:19.788Z,1.30
2022-08-22T19:47:56.574Z,0.80
2022-08-22T19:50:33.167Z,0.90
2022-08-22T19:53:37.149Z,1.00
2022-08-22T19:56:20.077Z,0.97
2022-08-22T19:59:02.542Z,0.82
2022-08-22T20:01:42.383Z,0.63
2022-08-22T20:04:28.930Z,0.80
2022-08-22T20:07:15.002Z,0.80
2022-08-22T20:09:57.838Z,0.47
2022-08-22T20:12:35.500Z,0.40
2022-08-22T20:15:17.093Z,0.82
2022-08-22T20:18:11.736Z,0.47
2022-08-22T20:20:59.643Z,0.70
2022-08-22T20:23:30.680Z,0.60
2022-08-22T20:26:00.477Z,0.70
2022-08-22T20:28:35.560Z,0.47
2022-08-22T20:31:07.104Z,0.45
2022-08-22T20:33:40.490Z,0.50
2022-08-22T20:36:27.433Z,0.80
2022-08-22T20:39:01.296Z,0.52
2022-08-22T20:41:35.999Z,0.40
2022-08-22T20:44:13.300Z,0.73
2022-08-22T20:46:57.583Z,0.50
2022-08-22T20:49:29.979Z,0.47
2022-08-22T20:52:00.857Z,0.70
2022-08-22T20:54:34.467Z,0.40
2022-08-22T20:57:16.255Z,0.68
2022-08-22T20:59:52.487Z,0.38
2022-08-22T21:02:26.132Z,0.70
2022-08-22T21:05:00.120Z,0.50
2022-08-22T21:07:31.193Z,0.50
2022-08-22T21:10:22.835Z,0.43
2022-08-22T21:13:13.723Z,0.57
2022-08-22T21:15:45.932Z,0.50
2022-08-22T21:18:24.048Z,0.38
2022-08-22T21:20:53.760Z,0.57
2022-08-22T21:23:21.932Z,0.63
2022-08-22T21:25:56.573Z,0.70
2022-08-22T21:28:35.478Z,0.55
2022-08-22T21:31:12.098Z,0.43
2022-08-22T21:33:45.974Z,0.60
2022-08-22T21:36:16.622Z,0.57
2022-08-22T21:38:50.742Z,0.60
2022-08-22T21:41:27.256Z,0.68
2022-08-22T21:44:18.828Z,0.60
2022-08-22T21:46:46.975Z,0.50
2022-08-22T21:49:22.558Z,0.40
2022-08-22T21:51:51.217Z,0.57
2022-08-22T21:54:33.539Z,0.75
2022-08-22T21:57:20.083Z,0.57
2022-08-22T21:59:59.500Z,0.43
2022-08-22T22:02:34.198Z,0.50
2022-08-22T22:05:09.203Z,0.43
2022-08-22T22:07:38.916Z,0.55
2022-08-22T22:10:09.178Z,0.70
2022-08-22T22:12:40.385Z,0.73
2022-08-22T22:15:13.729Z,0.70
2022-08-22T22:17:41.737Z,0.50
2022-08-22T22:20:12.464Z,1.05
2022-08-22T22:22:46.129Z,0.55
2022-08-22T22:25:39.506Z,0.70
2022-08-22T22:28:06.644Z,0.50
2022-08-22T22:30:36.494Z,1.00
2022-08-22T22:33:08.014Z,1.13
2022-08-22T22:35:38.796Z,0.65
2022-08-22T22:38:09.185Z,0.52
2022-08-22T22:40:37.354Z,0.60
2022-08-22T22:43:05.370Z,0.40
2022-08-22T22:45:37.644Z,0.50
2022-08-22T22:48:06.979Z,0.60
2022-08-22T22:50:37.976Z,0.60
2022-08-22T22:53:06.036Z,0.85
2022-08-22T22:55:37.771Z,0.45
2022-08-22T22:58:10.509Z,0.70
2022-08-22T23:00:39.790Z,0.68
2022-08-22T23:03:07.803Z,0.45
2022-08-22T23:05:36.163Z,0.90
2022-08-22T23:08:04.998Z,0.70
2022-08-22T23:10:34.958Z,0.63
2022-08-22T23:13:02.889Z,0.80
2022-08-22T23:15:30.887Z,0.40
2022-08-22T23:18:00.374Z,0.60
2022-08-22T23:20:28.612Z,0.52
2022-08-22T23:22:56.541Z,0.40
2022-08-22T23:25:24.469Z,0.60
2022-08-22T23:27:52.771Z,0.50
2022-08-22T23:30:21.849Z,0.50
2022-08-22T23:32:49.930Z,0.30
2022-08-22T23:35:19.365Z,0.50
2022-08-22T23:37:47.372Z,0.70
2022-08-22T23:40:15.370Z,0.88
2022-08-22T23:42:43.356Z,0.60
2022-08-22T23:45:12.286Z,0.55
2022-08-22T23:47:40.413Z,0.73
2022-08-22T23:50:08.848Z,0.52
2022-08-22T23:52:38.151Z,0.60
2022-08-22T23:55:06.844Z,0.35
2022-08-22T23:57:35.121Z,0.40
